Laida — EAVE — position and weather

sailwx.info

Track history (hours):
 
Tides and Currents Weather Stations Pressure Air Temp Water Temp Dewpoint Dewpoint Depression Visibility Wind Speed Wind Dir Waves Ship Positions

Laida

Last reported at 2014-Nov-26 02:29 UTC. Time now 2014-Nov-27 23:07 UTC.
Position N 54°17' W 005°13'.

Length 100 m; draft 5.8 m.

Type: Cargo ship. MMSI: 224509000.

Date/timePositionNaut miles runAvg speedWind from/ knotsBaromVisibWave heightAir tempDewpointWater temp
2014-Nov-26 02:29N 54°17' W 005°13'1010.8
2014-Nov-26 01:34N 54°27' W 005°15'1211.5
2014-Nov-26 00:33N 54°38' W 005°21'10 9.6
2014-Nov-25 23:34N 54°43' W 005°36'1010.1
2014-Nov-25 22:33N 54°39' W 005°52'3 1.8
2014-Nov-25 21:09N 54°37' W 005°55'0 0.0
2014-Nov-25 18:21N 54°37' W 005°55'0 0.0
2014-Nov-25 17:15N 54°37' W 005°55'0 0.0
2014-Nov-25 15:33N 54°37' W 005°55'0 0.0
2014-Nov-25 02:09N 54°37' W 005°55'0 0.0
2014-Nov-24 23:27N 54°37' W 005°55'0 0.0
2014-Nov-24 02:03N 54°37' W 005°55'0 0.0
2014-Nov-24 01:33N 54°37' W 005°55'0 0.0
2014-Nov-23 22:33N 54°37' W 005°55'3 1.6
2014-Nov-23 20:33N 54°40' W 005°51'10 9.7
2014-Nov-23 19:33N 54°43' W 005°36'8 8.4
2014-Nov-23 18:33N 54°40' W 005°22'1110.9
2014-Nov-23 17:33N 54°30' W 005°17'1110.9
2014-Nov-23 16:33N 54°19' W 005°21'  
2014-Nov-19 06:29N 54°03' W 006°10'1410.2
2014-Nov-19 05:08N 53°55' W 005°52'1 1.2
2014-Nov-19 04:22N 53°55' W 005°51'3 1.0
2014-Nov-19 01:21N 53°57' W 005°47'  
Track history (hours):
 
Tides and Currents Weather Stations Pressure Air Temp Water Temp Dewpoint Dewpoint Depression Visibility Wind Speed Wind Dir Waves Ship Positions

Laida

Last reported at 2014-Nov-26 02:29 UTC. Time now 2014-Nov-27 23:07 UTC.
Position N 54°17' W 005°13'.

Length 100 m; draft 5.8 m.

Type: Cargo ship. MMSI: 224509000.

Date/timePositionNaut miles runAvg speedWind from/ knotsBaromVisibWave heightAir tempDewpointWater temp
2014-Nov-26 02:29N 54°17' W 005°13'1010.8
2014-Nov-26 01:34N 54°27' W 005°15'1211.5
2014-Nov-26 00:33N 54°38' W 005°21'10 9.6
2014-Nov-25 23:34N 54°43' W 005°36'1010.1
2014-Nov-25 22:33N 54°39' W 005°52'3 1.8
2014-Nov-25 21:09N 54°37' W 005°55'0 0.0
2014-Nov-25 18:21N 54°37' W 005°55'0 0.0
2014-Nov-25 17:15N 54°37' W 005°55'0 0.0
2014-Nov-25 15:33N 54°37' W 005°55'0 0.0
2014-Nov-25 02:09N 54°37' W 005°55'0 0.0
2014-Nov-24 23:27N 54°37' W 005°55'0 0.0
2014-Nov-24 02:03N 54°37' W 005°55'0 0.0
2014-Nov-24 01:33N 54°37' W 005°55'0 0.0
2014-Nov-23 22:33N 54°37' W 005°55'3 1.6
2014-Nov-23 20:33N 54°40' W 005°51'10 9.7
2014-Nov-23 19:33N 54°43' W 005°36'8 8.4
2014-Nov-23 18:33N 54°40' W 005°22'1110.9
2014-Nov-23 17:33N 54°30' W 005°17'1110.9
2014-Nov-23 16:33N 54°19' W 005°21'  
2014-Nov-19 06:29N 54°03' W 006°10'1410.2
2014-Nov-19 05:08N 53°55' W 005°52'1 1.2
2014-Nov-19 04:22N 53°55' W 005°51'3 1.0
2014-Nov-19 01:21N 53°57' W 005°47'  

Dump ship's entire track history